Time;durP1;ratioP1;P1;durP2;ratioP2;P2;SDS_P1;SDS_P2;PMS_P1;PMS_P2;Temp;Humidity;BMP_temperature;BMP_pressure;BME280_temperature;BME280_humidity;BME280_pressure;Samples;Min_cycle;Max_cycle;Signal;HPM_P1;HPM_P2
2021/05/06 00:10:26;;;;;;;5.18;3.35;;;2.90;99.90;;;;;;2074025;28;20166;-68
2021/05/06 00:32:14;;;;;;;5.93;2.70;;;2.90;99.90;;;;;;2073609;28;20736;-68
2021/05/06 00:33:15;;;;;;;6.18;2.70;;;2.90;99.90;;;;;;2073987;28;20178;-68
2021/05/06 00:34:16;;;;;;;5.73;2.90;;;2.90;99.90;;;;;;2073607;28;20277;-67
2021/05/06 00:35:16;;;;;;;4.37;3.03;;;2.90;99.90;;;;;;2073658;28;20186;-67
2021/05/06 00:36:17;;;;;;;6.23;3.30;;;2.90;99.90;;;;;;2073810;28;20181;-68
2021/05/06 00:37:19;;;;;;;4.33;2.70;;;2.90;99.90;;;;;;2073900;28;20182;-68
2021/05/06 00:38:26;;;;;;;5.88;2.80;;;2.90;99.90;;;;;;2073685;28;20212;-67
2021/05/06 00:39:31;;;;;;;6.70;3.30;;;2.90;99.90;;;;;;2073729;28;20181;-68
2021/05/06 01:02:14;;;;;;;7.05;3.80;;;2.70;99.90;;;;;;2072039;28;20202;-67
2021/05/06 01:04:55;;;;;;;4.38;3.10;;;2.80;99.90;;;;;;2073462;28;20170;-68
2021/05/06 01:06:01;;;;;;;5.03;3.60;;;2.80;99.90;;;;;;2073411;28;20181;-68
2021/05/06 01:08:31;;;;;;;4.57;3.22;;;2.90;99.90;;;;;;2056068;28;20199;-67
2021/05/06 01:10:02;;;;;;;6.10;3.75;;;2.90;99.90;;;;;;2072567;28;20198;-67
2021/05/06 01:12:00;;;;;;;5.72;3.60;;;2.80;99.90;;;;;;2073440;28;20631;-67
2021/05/06 01:13:00;;;;;;;9.48;4.30;;;2.80;99.90;;;;;;2073602;28;20201;-68
2021/05/06 01:14:08;;;;;;;5.17;3.57;;;2.80;99.90;;;;;;2073241;28;20185;-67
2021/05/06 01:15:10;;;;;;;6.68;4.38;;;2.90;99.90;;;;;;2065674;28;20181;-68
2021/05/06 01:16:11;;;;;;;4.45;3.65;;;2.90;99.90;;;;;;2066059;28;20729;-67
2021/05/06 01:17:12;;;;;;;7.37;3.83;;;2.90;99.90;;;;;;2072967;28;20233;-68
2021/05/06 01:18:12;;;;;;;6.40;3.37;;;2.90;99.90;;;;;;2073445;28;20432;-68
2021/05/06 01:19:13;;;;;;;7.97;3.93;;;2.90;99.90;;;;;;2073236;28;20199;-68
2021/05/06 01:20:15;;;;;;;7.43;4.30;;;2.90;99.90;;;;;;2073390;28;20559;-68
2021/05/06 01:21:16;;;;;;;6.15;3.50;;;2.90;99.90;;;;;;2072992;28;20203;-68
2021/05/06 01:22:16;;;;;;;5.10;3.70;;;2.90;99.90;;;;;;2073403;28;20185;-68
2021/05/06 01:23:23;;;;;;;5.70;3.83;;;2.90;99.90;;;;;;2072689;28;20209;-67
2021/05/06 01:24:24;;;;;;;4.30;3.25;;;2.80;99.90;;;;;;2072648;28;20245;-68
2021/05/06 01:25:26;;;;;;;6.28;3.67;;;2.80;99.90;;;;;;2073586;28;20212;-68
2021/05/06 01:26:33;;;;;;;5.88;3.67;;;2.70;99.90;;;;;;2072758;28;20182;-67
2021/05/06 01:28:45;;;;;;;7.70;4.22;;;2.70;99.90;;;;;;2073417;28;20191;-68
2021/05/06 01:30:08;;;;;;;5.13;4.00;;;2.70;99.90;;;;;;2073333;28;20233;-68
2021/05/06 01:31:21;;;;;;;5.30;3.15;;;2.70;99.90;;;;;;2073202;28;20169;-68
2021/05/06 01:34:30;;;;;;;4.72;3.78;;;2.70;99.90;;;;;;2073317;28;20162;-67
2021/05/06 01:35:47;;;;;;;8.07;3.97;;;2.70;99.90;;;;;;2073093;28;20784;-67
2021/05/06 01:37:05;;;;;;;4.97;3.53;;;2.70;99.90;;;;;;2073200;28;20174;-68
2021/05/06 01:38:22;;;;;;;4.68;3.45;;;2.70;99.90;;;;;;2073279;28;20174;-68
2021/05/06 01:40:55;;;;;;;6.78;3.33;;;2.80;99.90;;;;;;2072842;28;20626;-68
2021/05/06 01:42:08;;;;;;;4.43;3.40;;;2.90;99.90;;;;;;2073063;28;20180;-68
2021/05/06 01:43:22;;;;;;;6.07;4.20;;;2.90;99.90;;;;;;2072568;28;20170;-68
2021/05/06 01:44:49;;;;;;;8.05;4.38;;;2.90;99.90;;;;;;2072827;28;20231;-68
2021/05/06 01:47:08;;;;;;;8.55;4.13;;;2.90;99.90;;;;;;2073118;28;20189;-68
2021/05/06 01:49:55;;;;;;;6.82;3.42;;;3.00;99.90;;;;;;2071943;28;20197;-68
2021/05/06 01:58:39;;;;;;;4.70;3.50;;;3.00;99.90;;;;;;2072963;28;20709;-68
2021/05/06 01:59:54;;;;;;;8.43;3.90;;;3.00;99.90;;;;;;2072389;28;20245;-67
2021/05/06 02:01:02;;;;;;;4.43;3.03;;;3.00;99.90;;;;;;2072069;28;20307;-68
2021/05/06 02:02:03;;;;;;;5.40;3.30;;;3.10;99.90;;;;;;2072070;28;20202;-68
2021/05/06 02:03:04;;;;;;;3.10;2.80;;;3.10;99.90;;;;;;2072919;28;20268;-68
2021/05/06 02:04:05;;;;;;;7.65;2.63;;;3.10;99.90;;;;;;2072893;28;20599;-68
2021/05/06 02:05:07;;;;;;;4.60;2.87;;;3.10;99.90;;;;;;2072925;28;20182;-68
2021/05/06 02:06:07;;;;;;;3.60;2.30;;;3.10;99.90;;;;;;2080387;28;20181;-67
2021/05/06 02:07:09;;;;;;;6.70;2.33;;;3.10;99.90;;;;;;2080502;28;20235;-68
2021/05/06 02:08:09;;;;;;;7.53;2.90;;;3.10;99.90;;;;;;2072688;28;20668;-68
2021/05/06 02:09:10;;;;;;;4.27;2.53;;;3.10;99.90;;;;;;2072841;28;20204;-67
2021/05/06 02:10:18;;;;;;;5.30;2.50;;;3.10;99.90;;;;;;2072743;28;20190;-68
2021/05/06 02:11:19;;;;;;;5.40;2.47;;;3.20;99.90;;;;;;2072723;28;20209;-67
2021/05/06 02:12:20;;;;;;;5.17;2.63;;;3.20;99.90;;;;;;2072688;28;20186;-68
2021/05/06 02:13:21;;;;;;;4.22;2.10;;;3.20;99.90;;;;;;2072646;28;20192;-68
2021/05/06 02:14:22;;;;;;;3.87;2.43;;;3.20;99.90;;;;;;2072739;28;20712;-68
2021/05/06 02:15:52;;;;;;;7.20;2.78;;;3.20;99.90;;;;;;2072497;28;20191;-68
2021/05/06 02:16:53;;;;;;;5.95;2.28;;;3.20;99.90;;;;;;2071971;28;20177;-68
2021/05/06 02:17:55;;;;;;;2.97;2.23;;;3.20;99.90;;;;;;2072244;28;20806;-68
2021/05/06 02:18:56;;;;;;;5.07;2.30;;;3.20;99.90;;;;;;2072577;28;20228;-67
2021/05/06 02:19:57;;;;;;;3.17;2.07;;;3.30;99.90;;;;;;2080439;28;20660;-68
2021/05/06 02:20:58;;;;;;;6.67;2.27;;;3.30;99.90;;;;;;2080319;28;20255;-68
2021/05/06 02:22:01;;;;;;;5.13;2.07;;;3.20;99.90;;;;;;2072452;28;20182;-68
2021/05/06 02:23:04;;;;;;;2.97;2.05;;;3.20;99.90;;;;;;2072710;28;20258;-67
2021/05/06 02:24:05;;;;;;;6.00;2.63;;;3.20;99.90;;;;;;2072779;28;20351;-68
2021/05/06 02:25:07;;;;;;;5.35;2.00;;;3.20;99.90;;;;;;2072856;28;20262;-68
2021/05/06 02:26:09;;;;;;;4.30;2.28;;;3.20;99.90;;;;;;2080188;28;20181;-67
2021/05/06 02:27:10;;;;;;;4.10;2.08;;;3.20;99.90;;;;;;2080129;28;20200;-68
2021/05/06 02:28:12;;;;;;;5.45;2.10;;;3.20;99.90;;;;;;2072718;28;20221;-68
2021/05/06 02:29:12;;;;;;;5.90;2.13;;;3.20;99.90;;;;;;2072613;28;20192;-67
2021/05/06 02:30:14;;;;;;;3.47;1.87;;;3.20;99.90;;;;;;2072741;28;20213;-68
2021/05/06 02:31:15;;;;;;;5.20;2.33;;;3.10;99.90;;;;;;2072502;28;20854;-68
2021/05/06 02:32:16;;;;;;;8.47;2.47;;;3.20;99.90;;;;;;2072722;28;20194;-68
2021/05/06 02:33:16;;;;;;;6.03;2.63;;;3.20;99.90;;;;;;2072749;28;20173;-68
2021/05/06 02:34:17;;;;;;;3.73;2.20;;;3.20;99.90;;;;;;2072701;28;20173;-67
2021/05/06 02:35:18;;;;;;;4.37;2.40;;;3.20;99.90;;;;;;2072554;28;20190;-67
2021/05/06 02:36:19;;;;;;;4.73;1.97;;;3.20;99.90;;;;;;2080275;28;20180;-68
2021/05/06 02:37:19;;;;;;;5.60;2.83;;;3.20;99.90;;;;;;2072264;28;20287;-67
2021/05/06 02:38:20;;;;;;;5.00;2.10;;;3.20;99.90;;;;;;2072241;28;20186;-68
2021/05/06 02:39:21;;;;;;;9.40;2.60;;;3.10;99.90;;;;;;2072688;28;20264;-68
2021/05/06 02:40:22;;;;;;;5.67;2.83;;;3.10;99.90;;;;;;2072416;28;20182;-68
2021/05/06 02:41:22;;;;;;;6.50;2.60;;;3.00;99.90;;;;;;2072531;28;20206;-68
2021/05/06 02:42:23;;;;;;;5.07;2.47;;;3.00;99.90;;;;;;2072702;28;20178;-68
2021/05/06 02:43:24;;;;;;;4.40;2.30;;;3.00;99.90;;;;;;2072866;28;20189;-68
2021/05/06 02:44:24;;;;;;;5.50;2.50;;;3.00;99.90;;;;;;2072571;28;20184;-71
2021/05/06 02:45:26;;;;;;;5.30;2.57;;;3.00;99.90;;;;;;2072770;28;20196;-68
2021/05/06 02:46:27;;;;;;;5.82;3.30;;;2.90;99.90;;;;;;2072527;28;20196;-68
2021/05/06 02:47:28;;;;;;;7.47;3.20;;;2.90;99.90;;;;;;2072796;28;20190;-67
2021/05/06 02:48:29;;;;;;;5.28;3.05;;;2.80;99.90;;;;;;2072749;28;20177;-67
2021/05/06 02:49:31;;;;;;;4.70;2.50;;;2.80;99.90;;;;;;2072250;28;20193;-68
2021/05/06 02:50:31;;;;;;;6.93;3.00;;;2.80;99.90;;;;;;2071969;28;20189;-67
2021/05/06 02:51:37;;;;;;;5.93;3.47;;;2.80;99.90;;;;;;2072247;28;20579;-68
2021/05/06 02:52:43;;;;;;;6.05;2.78;;;2.80;99.90;;;;;;2072620;28;20744;-67
2021/05/06 02:53:51;;;;;;;4.45;2.65;;;2.70;99.90;;;;;;2072706;28;20174;-67
2021/05/06 02:55:03;;;;;;;6.10;2.80;;;2.80;99.90;;;;;;2072749;28;20174;-68
2021/05/06 02:56:12;;;;;;;6.00;2.90;;;2.80;99.90;;;;;;2072952;28;20212;-68
2021/05/06 03:03:11;;;;;;;5.00;2.90;;;2.80;99.90;;;;;;2073831;28;20193;-67
2021/05/06 03:04:12;;;;;;;8.93;3.20;;;2.80;99.90;;;;;;2073564;28;20178;-70
2021/05/06 03:05:14;;;;;;;7.90;3.23;;;2.80;99.90;;;;;;2073396;28;20182;-67
2021/05/06 03:06:24;;;;;;;6.88;3.30;;;2.80;99.90;;;;;;2074957;28;20181;-67
2021/05/06 03:07:28;;;;;;;6.40;3.15;;;2.90;99.90;;;;;;2065020;28;20167;-67
2021/05/06 03:08:32;;;;;;;6.30;3.20;;;2.90;99.90;;;;;;2065113;28;20189;-67
2021/05/06 03:09:49;;;;;;;7.18;3.70;;;2.90;99.90;;;;;;2064269;28;20256;-67
2021/05/06 03:12:13;;;;;;;4.53;2.53;;;2.90;99.90;;;;;;2066342;28;20170;-68
2021/05/06 03:21:21;;;;;;;5.65;2.33;;;2.90;99.90;;;;;;2066161;28;20525;-67
2021/05/06 03:23:41;;;;;;;4.82;2.33;;;2.90;99.90;;;;;;2066123;28;20182;-67
2021/05/06 03:24:45;;;;;;;7.17;2.83;;;3.00;99.90;;;;;;2066260;28;20191;-67
2021/05/06 03:25:45;;;;;;;7.25;2.80;;;3.00;99.90;;;;;;2066162;28;20414;-67
2021/05/06 03:26:46;;;;;;;6.53;2.60;;;3.00;99.90;;;;;;2066192;28;20176;-68
2021/05/06 03:27:55;;;;;;;4.90;2.67;;;3.00;99.90;;;;;;2066092;28;20172;-69
2021/05/06 03:29:00;;;;;;;4.28;2.63;;;3.00;99.90;;;;;;2066113;28;20255;-68
2021/05/06 03:30:32;;;;;;;4.88;2.35;;;3.00;99.90;;;;;;2066143;28;20697;-68
2021/05/06 03:41:41;;;;;;;5.47;3.05;;;3.00;99.90;;;;;;2065296;28;20206;-69
2021/05/06 03:42:50;;;;;;;7.18;2.90;;;3.00;99.90;;;;;;2068796;28;20205;-67
2021/05/06 04:03:23;;;;;;;4.82;2.20;;;3.10;99.90;;;;;;2066143;28;20167;-67
2021/05/06 04:17:31;;;;;;;6.05;2.38;;;3.60;99.90;;;;;;2066154;28;20657;-67
2021/05/06 04:18:35;;;;;;;4.68;2.42;;;3.60;99.90;;;;;;2066476;28;20223;-67
2021/05/06 04:26:59;;;;;;;4.80;2.67;;;3.70;99.90;;;;;;2065254;28;20176;-68
2021/05/06 04:29:25;;;;;;;5.65;2.40;;;3.70;99.90;;;;;;2065738;28;20186;-67
2021/05/06 04:37:29;;;;;;;7.30;2.63;;;3.70;99.90;;;;;;2065275;28;20202;-66
2021/05/06 04:38:30;;;;;;;4.30;2.53;;;3.70;99.90;;;;;;2066392;28;20629;-66
2021/05/06 04:39:35;;;;;;;8.73;2.47;;;3.70;99.90;;;;;;2066254;28;20211;-66
2021/05/06 04:41:54;;;;;;;7.90;2.40;;;3.80;99.90;;;;;;2066179;28;20208;-65
2021/05/06 04:44:15;;;;;;;5.70;2.60;;;3.80;99.90;;;;;;2066406;28;20668;-66
2021/05/06 04:45:07;;;;;;;5.63;2.53;;;3.80;99.90;;;;;;2065737;28;20192;-66
2021/05/06 04:55:24;;;;;;;4.90;2.45;;;4.00;99.90;;;;;;2066293;28;20167;-66
2021/05/06 04:57:47;;;;;;;4.40;2.50;;;4.00;99.90;;;;;;2066327;28;20242;-66
2021/05/06 04:59:17;;;;;;;6.45;2.40;;;4.00;99.90;;;;;;2076027;28;20560;-66
2021/05/06 05:05:32;;;;;;;5.45;2.63;;;4.00;99.90;;;;;;2074376;28;20163;-66
2021/05/06 05:06:36;;;;;;;7.03;3.30;;;3.90;99.90;;;;;;2074295;28;20651;-66
2021/05/06 05:07:41;;;;;;;6.63;2.63;;;3.90;99.90;;;;;;2074301;28;20280;-67
2021/05/06 05:08:47;;;;;;;8.55;2.53;;;3.90;99.90;;;;;;2074407;28;20259;-67
2021/05/06 05:11:25;;;;;;;7.20;2.38;;;3.90;99.90;;;;;;2074229;28;20200;-67
2021/05/06 05:15:07;;;;;;;5.75;2.70;;;4.10;99.90;;;;;;2074481;28;20165;-67
2021/05/06 05:17:59;;;;;;;8.23;3.42;;;4.20;99.90;;;;;;2074249;28;20251;-66
2021/05/06 05:20:07;;;;;;;6.37;2.77;;;4.20;99.90;;;;;;2073658;28;20192;-67
2021/05/06 05:23:24;;;;;;;7.40;2.85;;;4.20;99.90;;;;;;2080636;28;20195;-67
2021/05/06 05:23:59;;;;;;;6.43;2.58;;;4.20;99.90;;;;;;2073400;28;20195;-67
2021/05/06 05:25:03;;;;;;;4.80;2.80;;;4.20;99.90;;;;;;2089114;22;20181;-69
2021/05/06 05:26:07;;;;;;;6.72;2.50;;;4.20;99.90;;;;;;2072959;28;20207;-69
2021/05/06 05:27:07;;;;;;;5.72;3.20;;;4.20;99.90;;;;;;2074037;28;20218;-69
2021/05/06 05:28:09;;;;;;;5.03;2.93;;;4.20;99.90;;;;;;2074068;28;20226;-69
2021/05/06 05:29:09;;;;;;;6.35;2.35;;;4.20;99.90;;;;;;2074948;28;20189;-69
2021/05/06 05:30:10;;;;;;;8.37;2.90;;;4.30;99.90;;;;;;2074241;28;20213;-69
2021/05/06 05:31:11;;;;;;;8.85;2.60;;;4.30;99.90;;;;;;2073862;28;20185;-69
2021/05/06 05:32:12;;;;;;;5.10;2.30;;;4.30;99.90;;;;;;2074392;28;20538;-69
2021/05/06 05:33:15;;;;;;;7.77;2.63;;;4.30;99.90;;;;;;2074149;28;20199;-70
2021/05/06 05:34:25;;;;;;;5.78;2.33;;;4.40;99.90;;;;;;2074836;28;20180;-70
2021/05/06 05:36:36;;;;;;;5.70;2.35;;;4.50;99.90;;;;;;2073271;28;20169;-70
2021/05/06 05:37:41;;;;;;;8.07;2.53;;;4.50;99.90;;;;;;2066472;28;20184;-69
2021/05/06 05:39:55;;;;;;;8.33;4.03;;;4.60;99.90;;;;;;2064924;28;20191;-69
2021/05/06 05:42:12;;;;;;;6.53;2.70;;;4.80;99.90;;;;;;2064120;28;20193;-70
2021/05/06 05:54:37;;;;;;;8.88;3.38;;;4.80;99.90;;;;;;2064802;28;20659;-70
2021/05/06 05:55:38;;;;;;;5.18;3.08;;;4.80;99.90;;;;;;2064401;28;20224;-69
2021/05/06 05:56:39;;;;;;;5.53;2.90;;;4.90;99.90;;;;;;2064368;28;20331;-70
2021/05/06 05:57:39;;;;;;;5.60;2.60;;;5.00;99.90;;;;;;2064918;28;20678;-70
2021/05/06 05:58:40;;;;;;;3.17;2.20;;;5.00;99.90;;;;;;2064764;28;20271;-69
2021/05/06 05:59:41;;;;;;;3.43;2.20;;;5.00;99.90;;;;;;2064956;28;20263;-70
2021/05/06 06:00:41;;;;;;;5.17;2.10;;;5.00;99.90;;;;;;2064839;28;20219;-70
2021/05/06 06:01:42;;;;;;;4.97;2.07;;;5.10;99.90;;;;;;2064687;28;20211;-70
2021/05/06 06:02:43;;;;;;;7.60;2.33;;;5.10;99.90;;;;;;2064797;28;20209;-69
2021/05/06 06:03:44;;;;;;;7.35;2.20;;;5.10;99.90;;;;;;2064186;28;20619;-69
2021/05/06 06:04:45;;;;;;;5.77;1.93;;;5.20;99.90;;;;;;2063874;28;20188;-69
2021/05/06 06:05:46;;;;;;;3.50;2.00;;;5.20;99.90;;;;;;2064850;28;20208;-69
2021/05/06 06:06:46;;;;;;;4.30;2.03;;;5.20;99.90;;;;;;2064920;28;20719;-70
2021/05/06 06:07:47;;;;;;;7.27;2.27;;;5.20;99.90;;;;;;2064888;28;20209;-70
2021/05/06 06:08:48;;;;;;;4.73;1.80;;;5.10;99.90;;;;;;2064883;28;20190;-69
2021/05/06 06:09:49;;;;;;;3.22;1.77;;;5.10;99.90;;;;;;2064154;28;20739;-70
2021/05/06 06:10:50;;;;;;;7.33;2.20;;;5.10;99.90;;;;;;2064168;28;20178;-70
2021/05/06 06:11:50;;;;;;;3.80;1.70;;;5.10;99.90;;;;;;2064568;28;20184;-69
2021/05/06 06:12:51;;;;;;;6.47;2.57;;;5.00;99.90;;;;;;2064838;28;20178;-70
2021/05/06 06:13:54;;;;;;;9.75;2.35;;;5.10;99.90;;;;;;2064948;28;20212;-70
2021/05/06 06:15:03;;;;;;;4.53;2.08;;;5.20;99.90;;;;;;2064785;28;20185;-69
2021/05/06 06:16:11;;;;;;;3.95;1.90;;;5.20;99.90;;;;;;2064706;28;20166;-69
2021/05/06 06:17:12;;;;;;;11.05;3.28;;;5.20;99.90;;;;;;2064832;28;20181;-70
2021/05/06 06:18:31;;;;;;;5.32;2.55;;;5.30;99.90;;;;;;2064973;28;20201;-69
2021/05/06 06:19:35;;;;;;;4.00;2.42;;;5.40;99.90;;;;;;2064268;28;20225;-69
2021/05/06 06:20:38;;;;;;;5.82;2.47;;;5.40;99.90;;;;;;2064542;28;20189;-69
2021/05/06 06:21:47;;;;;;;6.85;2.50;;;5.40;99.90;;;;;;2064528;28;20184;-69
2021/05/06 06:22:47;;;;;;;5.18;2.33;;;5.50;99.90;;;;;;2064921;28;20584;-70
2021/05/06 06:23:49;;;;;;;5.37;2.20;;;5.60;99.90;;;;;;2064798;28;20206;-70
2021/05/06 06:24:50;;;;;;;4.35;2.10;;;5.60;99.90;;;;;;2064558;28;20236;-69
2021/05/06 06:25:50;;;;;;;5.57;2.10;;;5.70;99.90;;;;;;2064584;28;20194;-69
2021/05/06 06:26:51;;;;;;;6.93;2.77;;;5.80;99.90;;;;;;2064639;28;20193;-69
2021/05/06 06:27:52;;;;;;;6.40;2.33;;;5.90;99.90;;;;;;2064746;28;20182;-70
2021/05/06 06:29:00;;;;;;;2.90;2.00;;;5.90;99.90;;;;;;2064790;28;20181;-69
2021/05/06 06:30:02;;;;;;;5.82;2.13;;;5.90;99.90;;;;;;2064756;28;20178;-69
2021/05/06 06:31:05;;;;;;;5.45;1.70;;;5.90;99.90;;;;;;2064173;28;20190;-69
2021/05/06 06:32:09;;;;;;;5.90;2.25;;;5.80;99.90;;;;;;2063620;28;20186;-70
2021/05/06 06:33:10;;;;;;;7.25;2.40;;;5.80;99.90;;;;;;2064150;28;20185;-69
2021/05/06 06:34:11;;;;;;;5.00;2.07;;;5.90;99.90;;;;;;2056527;28;20182;-69
2021/05/06 06:35:11;;;;;;;4.20;1.87;;;5.90;99.90;;;;;;2064086;28;20236;-69
2021/05/06 06:36:12;;;;;;;5.03;2.10;;;5.80;99.90;;;;;;2064667;28;20192;-69
2021/05/06 06:37:15;;;;;;;4.05;2.05;;;5.70;99.90;;;;;;2064599;28;20178;-69
2021/05/06 06:38:15;;;;;;;4.15;1.75;;;5.70;99.90;;;;;;2064026;28;20182;-69
2021/05/06 06:39:16;;;;;;;3.57;1.90;;;5.80;99.90;;;;;;2055911;28;20214;-69
2021/05/06 06:40:17;;;;;;;2.63;2.10;;;5.80;99.90;;;;;;2063969;28;20188;-69
2021/05/06 06:41:18;;;;;;;4.13;1.80;;;5.80;99.90;;;;;;2064436;28;20425;-69
2021/05/06 06:42:18;;;;;;;3.93;1.90;;;5.80;99.90;;;;;;2064565;28;20637;-70
2021/05/06 06:43:19;;;;;;;6.77;2.07;;;5.80;99.90;;;;;;2064566;28;20263;-69
2021/05/06 06:44:24;;;;;;;6.03;2.37;;;5.80;99.90;;;;;;2064531;28;20197;-69
2021/05/06 06:45:25;;;;;;;4.10;1.80;;;5.80;99.90;;;;;;2064411;28;20206;-69
2021/05/06 06:46:26;;;;;;;4.33;2.07;;;5.80;99.90;;;;;;2064308;28;20248;-69
2021/05/06 06:47:26;;;;;;;4.13;1.83;;;5.70;99.90;;;;;;2064664;28;20525;-69
2021/05/06 06:48:27;;;;;;;5.80;2.07;;;5.60;99.90;;;;;;2064428;28;20210;-70
2021/05/06 06:49:37;;;;;;;5.60;2.37;;;5.60;99.90;;;;;;2064662;28;20216;-69
2021/05/06 06:50:37;;;;;;;6.60;2.15;;;5.70;99.90;;;;;;2064063;28;20222;-69
2021/05/06 06:51:38;;;;;;;4.27;1.90;;;5.70;99.90;;;;;;2063576;28;20614;-69
2021/05/06 06:52:39;;;;;;;5.73;2.23;;;5.60;99.90;;;;;;2064468;28;20218;-69
2021/05/06 06:53:40;;;;;;;4.03;2.10;;;5.70;99.90;;;;;;2064560;28;20198;-69
2021/05/06 06:54:40;;;;;;;5.47;2.03;;;5.80;99.90;;;;;;2064451;28;20668;-69
2021/05/06 06:55:41;;;;;;;5.50;2.23;;;5.80;99.90;;;;;;2064553;28;20226;-70
2021/05/06 06:56:42;;;;;;;3.33;2.00;;;5.80;99.90;;;;;;2064566;28;20229;-69
2021/05/06 06:57:42;;;;;;;4.53;2.27;;;5.80;99.90;;;;;;2064610;28;20178;-70
2021/05/06 06:58:48;;;;;;;3.67;2.03;;;5.80;99.90;;;;;;2064327;28;20642;-69
2021/05/06 06:59:49;;;;;;;6.78;1.92;;;5.80;99.90;;;;;;2064602;28;20161;-69
2021/05/06 07:00:50;;;;;;;3.83;2.30;;;5.80;99.90;;;;;;2064396;28;20649;-70
2021/05/06 07:01:50;;;;;;;4.55;2.00;;;5.80;99.90;;;;;;2063883;28;20183;-69
2021/05/06 07:02:51;;;;;;;5.30;2.30;;;5.70;99.90;;;;;;2063828;28;20266;-70
2021/05/06 07:03:52;;;;;;;3.27;2.00;;;5.80;99.90;;;;;;2064631;28;20171;-70
2021/05/06 07:04:52;;;;;;;4.90;2.10;;;5.80;99.90;;;;;;2064477;28;20233;-70
2021/05/06 07:05:53;;;;;;;5.83;2.20;;;5.80;99.90;;;;;;2064644;28;20261;-69
2021/05/06 07:06:54;;;;;;;4.73;2.00;;;5.80;99.90;;;;;;2064752;28;20272;-70
2021/05/06 07:08:37;;;;;;;3.83;2.40;;;5.90;99.90;;;;;;2064755;28;20554;-70
2021/05/06 07:09:38;;;;;;;5.63;1.92;;;5.90;99.90;;;;;;2064467;28;20181;-69
2021/05/06 07:10:38;;;;;;;7.80;2.23;;;5.90;99.90;;;;;;2064652;28;20182;-70
2021/05/06 07:11:39;;;;;;;5.10;2.10;;;5.90;99.90;;;;;;2064367;28;20185;-70
2021/05/06 07:12:40;;;;;;;4.83;2.20;;;5.90;99.90;;;;;;2064658;28;20778;-70
2021/05/06 07:13:40;;;;;;;4.53;1.70;;;5.90;99.90;;;;;;2064483;28;20680;-70
2021/05/06 07:14:42;;;;;;;6.90;2.53;;;5.90;99.90;;;;;;2064565;28;20196;-70
2021/05/06 07:15:46;;;;;;;3.88;1.88;;;6.00;99.90;;;;;;2063691;28;20245;-69
2021/05/06 07:16:48;;;;;;;5.47;2.03;;;6.00;99.90;;;;;;2063995;28;20186;-70
2021/05/06 07:17:48;;;;;;;5.20;2.45;;;5.90;99.90;;;;;;2063883;28;20185;-69
2021/05/06 07:18:49;;;;;;;3.47;1.93;;;5.90;99.90;;;;;;2064293;28;20190;-70
2021/05/06 07:19:50;;;;;;;6.23;2.17;;;5.90;99.90;;;;;;2064402;28;20182;-69
2021/05/06 07:20:50;;;;;;;7.80;2.33;;;5.90;99.90;;;;;;2064439;28;20197;-69
2021/05/06 07:21:51;;;;;;;8.30;3.47;;;5.90;99.90;;;;;;2064054;28;20753;-69
2021/05/06 07:22:52;;;;;;;3.77;1.83;;;5.80;99.90;;;;;;2064544;28;20180;-71
2021/05/06 07:23:54;;;;;;;4.53;1.80;;;5.80;99.90;;;;;;2064425;28;20686;-71
2021/05/06 07:24:55;;;;;;;3.85;2.20;;;5.70;99.90;;;;;;2064422;28;20178;-71
2021/05/06 07:25:57;;;;;;;6.73;2.07;;;5.60;99.90;;;;;;2063587;28;20208;-71
2021/05/06 07:27:00;;;;;;;4.72;2.10;;;5.60;99.90;;;;;;2055962;28;20266;-71
2021/05/06 07:28:16;;;;;;;7.28;2.13;;;5.60;99.90;;;;;;2063826;28;20233;-70
2021/05/06 07:29:20;;;;;;;6.43;2.83;;;5.70;99.90;;;;;;2063787;28;20684;-72
2021/05/06 07:30:21;;;;;;;4.40;2.03;;;5.80;99.90;;;;;;2056158;28;20215;-71
2021/05/06 07:31:22;;;;;;;8.47;3.20;;;5.80;99.90;;;;;;2063739;28;20739;-72
2021/05/06 07:32:22;;;;;;;6.23;2.10;;;5.90;99.90;;;;;;2064335;28;20646;-71
2021/05/06 07:33:23;;;;;;;11.77;2.93;;;5.90;99.90;;;;;;2064484;28;20190;-71
2021/05/06 07:34:24;;;;;;;5.60;2.30;;;5.80;99.90;;;;;;2063708;28;20182;-71
2021/05/06 07:35:25;;;;;;;6.77;2.30;;;5.80;99.90;;;;;;2063890;28;20747;-70
2021/05/06 07:36:25;;;;;;;7.67;2.50;;;5.70;99.90;;;;;;2064438;28;20784;-70
2021/05/06 07:37:26;;;;;;;9.37;2.57;;;5.80;99.90;;;;;;2064367;28;20182;-72
2021/05/06 07:38:30;;;;;;;7.03;3.33;;;5.80;99.90;;;;;;2063745;28;20273;-71
2021/05/06 07:39:31;;;;;;;8.13;3.72;;;5.80;99.90;;;;;;2063635;28;20263;-72
2021/05/06 07:40:34;;;;;;;7.05;3.15;;;5.90;99.90;;;;;;2063748;28;20182;-72
2021/05/06 07:41:35;;;;;;;5.07;2.33;;;5.90;99.90;;;;;;2064245;28;20206;-70
2021/05/06 07:42:36;;;;;;;5.60;2.77;;;6.00;99.90;;;;;;2064254;28;20233;-71
2021/05/06 07:43:37;;;;;;;5.13;2.20;;;6.00;99.90;;;;;;2063812;28;20724;-71
2021/05/06 07:44:38;;;;;;;7.35;2.50;;;5.90;99.90;;;;;;2055788;28;20227;-71
2021/05/06 07:45:39;;;;;;;6.90;2.90;;;5.90;99.90;;;;;;2063838;28;20264;-70
2021/05/06 07:46:39;;;;;;;6.93;2.60;;;5.90;99.90;;;;;;2064433;28;20197;-72
2021/05/06 07:47:40;;;;;;;8.47;2.50;;;5.90;99.90;;;;;;2064682;28;20558;-72
2021/05/06 07:48:41;;;;;;;4.73;2.30;;;5.90;99.90;;;;;;2064528;28;20175;-71
2021/05/06 07:49:42;;;;;;;10.93;2.57;;;5.80;99.90;;;;;;2064428;28;20744;-73
2021/05/06 07:50:43;;;;;;;5.13;2.25;;;5.80;99.90;;;;;;2063731;28;20189;-72
2021/05/06 07:51:44;;;;;;;6.37;2.17;;;5.70;99.90;;;;;;2063619;28;20193;-72
2021/05/06 07:52:47;;;;;;;7.63;2.60;;;5.60;99.90;;;;;;2064398;28;20181;-71
2021/05/06 07:53:53;;;;;;;8.43;4.55;;;5.60;99.90;;;;;;2063484;28;20190;-71
2021/05/06 07:54:55;;;;;;;6.60;2.85;;;5.60;99.90;;;;;;2063691;28;20175;-70
2021/05/06 07:55:57;;;;;;;5.88;3.00;;;5.70;99.90;;;;;;2063785;28;20182;-72
2021/05/06 07:56:58;;;;;;;9.82;4.60;;;5.60;99.90;;;;;;2063751;28;20206;-71
2021/05/06 07:58:03;;;;;;;6.50;2.45;;;5.60;99.90;;;;;;2064098;28;20178;-72
2021/05/06 07:59:05;;;;;;;4.40;2.22;;;5.60;99.90;;;;;;2065060;28;20178;-71
2021/05/06 08:00:09;;;;;;;5.35;2.15;;;5.60;99.90;;;;;;2065868;28;20186;-72
2021/05/06 08:01:10;;;;;;;9.27;2.83;;;5.70;99.90;;;;;;2065839;28;20240;-72
2021/05/06 08:02:11;;;;;;;5.07;2.55;;;5.60;99.90;;;;;;2065871;28;20273;-71
2021/05/06 08:03:12;;;;;;;8.10;2.50;;;5.60;99.90;;;;;;2065875;28;20594;-72
2021/05/06 08:04:14;;;;;;;4.55;2.38;;;5.60;99.90;;;;;;2065837;28;20188;-71
2021/05/06 08:05:16;;;;;;;4.45;2.10;;;5.60;99.90;;;;;;2065638;28;20241;-71
2021/05/06 08:06:18;;;;;;;4.70;1.90;;;5.70;99.90;;;;;;2065838;28;20204;-71
2021/05/06 08:07:18;;;;;;;9.02;3.97;;;5.70;99.90;;;;;;2065856;28;20264;-72
2021/05/06 08:08:19;;;;;;;5.03;2.70;;;5.70;99.90;;;;;;2065883;28;20174;-70
2021/05/06 08:09:20;;;;;;;5.43;2.20;;;5.70;99.90;;;;;;2065947;28;20200;-71
2021/05/06 08:10:23;;;;;;;5.80;2.30;;;5.70;99.90;;;;;;2065704;28;20652;-71
2021/05/06 08:11:24;;;;;;;4.50;2.38;;;5.50;99.90;;;;;;2065140;28;20679;-71
2021/05/06 08:12:25;;;;;;;8.60;2.93;;;5.50;99.90;;;;;;2065273;28;20185;-73
2021/05/06 08:13:28;;;;;;;9.82;3.53;;;5.50;99.90;;;;;;2065926;28;20192;-71
2021/05/06 08:14:29;;;;;;;6.78;3.42;;;5.50;99.90;;;;;;2057071;28;20201;-72
2021/05/06 08:15:30;;;;;;;5.75;2.78;;;5.60;99.90;;;;;;2057164;28;20210;-71
2021/05/06 08:16:31;;;;;;;3.88;2.60;;;5.60;99.90;;;;;;2064866;28;20190;-71
2021/05/06 08:17:32;;;;;;;5.33;2.43;;;5.60;99.90;;;;;;2065316;28;20185;-71
2021/05/06 08:18:33;;;;;;;8.63;4.30;;;5.60;99.90;;;;;;2065730;28;20665;-72
2021/05/06 08:19:34;;;;;;;9.53;6.53;;;5.60;99.90;;;;;;2065741;28;20677;-71
2021/05/06 08:20:34;;;;;;;11.68;7.10;;;5.60;99.90;;;;;;2065023;28;20188;-73
2021/05/06 08:21:36;;;;;;;4.73;2.33;;;5.50;99.90;;;;;;2064923;28;20190;-71
2021/05/06 08:22:37;;;;;;;4.75;2.42;;;5.40;99.90;;;;;;2065652;28;20177;-72
2021/05/06 08:23:38;;;;;;;5.47;2.33;;;5.30;99.90;;;;;;2065661;28;20885;-71
2021/05/06 08:24:39;;;;;;;4.30;1.90;;;5.30;99.90;;;;;;2065658;28;20185;-72
2021/05/06 08:25:40;;;;;;;5.78;2.63;;;5.20;99.90;;;;;;2056815;28;20241;-71
2021/05/06 08:26:41;;;;;;;6.70;2.50;;;5.20;99.90;;;;;;2056734;28;20224;-71
2021/05/06 08:27:43;;;;;;;6.43;2.95;;;5.20;99.90;;;;;;2065111;28;20265;-71
2021/05/06 08:28:44;;;;;;;5.68;2.60;;;5.20;99.90;;;;;;2065704;28;20213;-71
2021/05/06 08:29:45;;;;;;;7.63;2.80;;;5.10;99.90;;;;;;2065664;28;20188;-71
2021/05/06 08:30:47;;;;;;;7.60;2.50;;;5.10;99.90;;;;;;2065553;28;20206;-71
2021/05/06 08:31:47;;;;;;;4.15;2.33;;;5.10;99.90;;;;;;2065501;28;20687;-71
2021/05/06 08:32:48;;;;;;;3.57;2.30;;;5.20;99.90;;;;;;2065413;28;20196;-71
2021/05/06 08:33:49;;;;;;;4.50;1.90;;;5.20;99.90;;;;;;2065660;28;20688;-72
2021/05/06 08:34:50;;;;;;;4.07;1.87;;;5.20;99.90;;;;;;2065439;28;20212;-70
2021/05/06 08:35:50;;;;;;;3.83;2.50;;;5.20;99.90;;;;;;2065598;28;20220;-72
2021/05/06 08:36:51;;;;;;;5.47;2.40;;;5.30;99.90;;;;;;2065515;28;20622;-71
2021/05/06 08:37:52;;;;;;;4.03;1.73;;;5.20;99.90;;;;;;2065427;28;20191;-71
2021/05/06 08:38:53;;;;;;;4.43;2.20;;;5.20;99.90;;;;;;2065390;28;20249;-72
2021/05/06 08:39:53;;;;;;;5.83;2.10;;;5.20;99.90;;;;;;2064882;28;20262;-71
2021/05/06 08:40:55;;;;;;;5.07;2.03;;;5.20;99.90;;;;;;2064793;28;20173;-71
2021/05/06 08:41:56;;;;;;;2.55;1.92;;;5.20;99.90;;;;;;2064824;28;20187;-71